createdAt,value
2019-03-23T00:03:53.803Z,53.80
2019-03-23T00:06:42.570Z,53.91
2019-03-23T00:09:31.349Z,54.38
2019-03-23T00:12:20.123Z,54.20
2019-03-23T00:15:29.815Z,54.39
2019-03-23T00:18:18.589Z,54.10
2019-03-23T00:21:07.354Z,54.63
2019-03-23T00:23:56.135Z,54.91
2019-03-23T00:26:44.898Z,54.91
2019-03-23T00:29:26.381Z,54.89
2019-03-23T00:32:15.162Z,55.23
2019-03-23T00:38:32.416Z,55.38
2019-03-23T00:41:21.196Z,55.58
2019-03-23T00:44:09.966Z,55.74
2019-03-23T00:46:58.741Z,55.36
2019-03-23T00:49:47.515Z,55.26
2019-03-23T00:52:36.294Z,55.02
2019-03-23T00:55:25.094Z,55.04
2019-03-23T00:58:13.887Z,55.24
2019-03-23T01:01:02.664Z,54.86
2019-03-23T01:03:51.446Z,54.90
2019-03-23T01:06:40.283Z,55.14
2019-03-23T01:09:28.990Z,55.05
2019-03-23T01:12:17.775Z,55.25
2019-03-23T01:15:25.854Z,55.11
2019-03-23T01:18:14.671Z,55.03
2019-03-23T01:21:03.409Z,54.97
2019-03-23T01:23:52.198Z,55.63
2019-03-23T01:26:40.977Z,56.13
2019-03-23T01:29:22.839Z,55.66
2019-03-23T01:32:11.599Z,55.74
2019-03-23T01:34:41.027Z,55.40
2019-03-23T01:37:10.520Z,55.97
2019-03-23T01:39:59.279Z,56.56
2019-03-23T01:42:48.066Z,56.85
2019-03-23T01:45:36.851Z,56.91
2019-03-23T01:48:25.729Z,56.93
2019-03-23T01:51:14.446Z,56.95
2019-03-23T01:54:03.223Z,57.05
2019-03-23T01:56:51.995Z,57.18
2019-03-23T01:59:40.773Z,57.42
2019-03-23T02:02:29.563Z,57.70
2019-03-23T02:05:18.361Z,57.55
2019-03-23T02:08:07.139Z,57.46
2019-03-23T02:10:55.916Z,57.57
2019-03-23T02:13:44.686Z,57.67
2019-03-23T02:16:33.462Z,57.58
2019-03-23T02:19:22.228Z,57.75
2019-03-23T02:22:11.007Z,57.96
2019-03-23T02:24:59.789Z,57.70
2019-03-23T02:27:48.587Z,57.99
2019-03-23T02:30:37.360Z,58.81
2019-03-23T02:33:26.131Z,58.60
2019-03-23T02:36:14.905Z,58.29
2019-03-23T02:42:18.505Z,58.71
2019-03-23T02:45:26.680Z,58.82
2019-03-23T02:48:15.450Z,58.92
2019-03-23T02:51:04.249Z,58.85
2019-03-23T02:53:52.986Z,59.12
2019-03-23T02:56:41.756Z,59.25
2019-03-23T02:59:30.526Z,59.80
2019-03-23T03:02:19.303Z,59.62
2019-03-23T03:05:28.980Z,59.49
2019-03-23T03:08:17.766Z,59.82
2019-03-23T03:11:06.608Z,59.93
2019-03-23T03:13:55.379Z,60.36
2019-03-23T03:16:44.641Z,60.14
2019-03-23T03:19:14.650Z,60.26
2019-03-23T03:22:03.476Z,60.06
2019-03-23T03:24:52.294Z,60.06
2019-03-23T03:27:41.058Z,59.68
2019-03-23T03:30:22.609Z,59.14
2019-03-23T03:33:11.395Z,59.26
2019-03-23T03:36:00.168Z,59.15
2019-03-23T03:38:29.608Z,59.04
2019-03-23T03:44:08.669Z,59.27
2019-03-23T03:46:38.097Z,59.06
2019-03-23T03:49:26.882Z,58.95
2019-03-23T03:52:15.644Z,58.71
2019-03-23T03:54:45.073Z,58.67
2019-03-23T03:57:33.846Z,58.55
2019-03-23T04:00:22.630Z,58.64
2019-03-23T04:03:04.836Z,59.23
2019-03-23T04:05:53.602Z,59.39
2019-03-23T04:08:42.391Z,59.29
2019-03-23T04:11:31.142Z,59.07
2019-03-23T04:14:19.920Z,59.18
2019-03-23T04:17:08.682Z,59.44
2019-03-23T04:20:16.554Z,59.71
2019-03-23T04:23:05.288Z,59.50
2019-03-23T04:25:54.115Z,59.37
2019-03-23T04:28:42.871Z,59.30
2019-03-23T04:31:31.640Z,59.46
2019-03-23T04:34:20.683Z,59.50
2019-03-23T04:37:09.450Z,59.30
2019-03-23T04:39:58.231Z,59.40
2019-03-23T04:42:46.995Z,59.47
2019-03-23T04:45:35.771Z,59.19
2019-03-23T04:48:24.537Z,59.48
2019-03-23T04:51:13.311Z,59.60
2019-03-23T04:54:02.092Z,60.05
2019-03-23T04:56:50.878Z,60.07
2019-03-23T04:59:39.656Z,60.02
2019-03-23T05:02:21.146Z,59.94
2019-03-23T05:05:09.988Z,59.70
2019-03-23T05:07:58.758Z,59.80
2019-03-23T05:10:47.591Z,59.86
2019-03-23T05:13:36.359Z,59.64
2019-03-23T05:16:25.127Z,59.76
2019-03-23T05:19:13.913Z,59.58
2019-03-23T05:22:02.680Z,59.61
2019-03-23T05:24:51.500Z,59.26
2019-03-23T05:27:40.268Z,59.31
2019-03-23T05:30:29.049Z,59.23
2019-03-23T05:33:17.814Z,59.29
2019-03-23T05:36:06.616Z,59.25
2019-03-23T05:38:55.368Z,59.07
2019-03-23T05:41:44.150Z,59.06
2019-03-23T05:44:32.933Z,59.08
2019-03-23T05:47:21.706Z,58.84
2019-03-23T05:50:05.245Z,59.01
2019-03-23T05:52:54.017Z,58.80
2019-03-23T05:55:42.794Z,58.89
2019-03-23T05:58:31.575Z,58.71
2019-03-23T06:01:20.353Z,58.72
2019-03-23T06:04:09.128Z,58.29
2019-03-23T06:06:57.901Z,58.41
2019-03-23T06:09:46.736Z,58.11
2019-03-23T06:12:35.492Z,58.98
2019-03-23T06:15:24.287Z,57.85
2019-03-23T06:18:13.051Z,57.32
2019-03-23T06:21:01.820Z,57.25
2019-03-23T06:23:50.595Z,56.85
2019-03-23T06:26:39.384Z,56.66
2019-03-23T06:29:28.178Z,56.69
2019-03-23T06:32:16.948Z,56.54
2019-03-23T06:38:20.550Z,56.24
2019-03-23T06:41:09.319Z,55.67
2019-03-23T06:43:58.088Z,55.39
2019-03-23T06:46:46.881Z,55.03
2019-03-23T06:49:28.304Z,54.59
2019-03-23T06:52:17.087Z,54.27
2019-03-23T06:55:26.772Z,53.87
2019-03-23T06:58:15.542Z,53.15
2019-03-23T07:01:04.324Z,51.87
2019-03-23T07:03:53.097Z,51.70
2019-03-23T07:06:41.880Z,51.16
2019-03-23T07:09:30.667Z,50.25
2019-03-23T07:12:19.437Z,49.65
2019-03-23T07:15:29.147Z,49.14
2019-03-23T07:18:17.933Z,48.65
2019-03-23T07:21:06.732Z,47.63
2019-03-23T07:23:55.502Z,46.95
2019-03-23T07:26:44.302Z,45.83
2019-03-23T07:29:33.096Z,44.80
2019-03-23T07:35:50.448Z,42.63
2019-03-23T07:38:39.230Z,40.83
2019-03-23T07:41:28.006Z,39.84
2019-03-23T07:44:16.781Z,39.23
2019-03-23T07:47:05.563Z,37.60
2019-03-23T07:49:47.569Z,37.26
2019-03-23T07:52:36.488Z,36.44
2019-03-23T07:55:25.269Z,36.65
2019-03-23T07:58:14.135Z,36.04
2019-03-23T08:01:02.913Z,36.02
2019-03-23T08:03:51.678Z,35.65
2019-03-23T08:06:40.506Z,34.46
2019-03-23T08:09:37.285Z,34.57
2019-03-23T08:12:19.787Z,33.90
2019-03-23T08:15:29.516Z,33.70
2019-03-23T08:18:18.368Z,33.19
2019-03-23T08:21:07.153Z,32.68
2019-03-23T08:27:09.111Z,32.08
2019-03-23T08:29:57.893Z,31.47
2019-03-23T08:32:46.695Z,31.57
2019-03-23T08:35:35.481Z,31.30
2019-03-23T08:38:24.261Z,30.91
2019-03-23T08:41:13.067Z,31.14
2019-03-23T08:44:01.846Z,31.20
2019-03-23T08:46:50.675Z,31.47
2019-03-23T08:49:32.227Z,31.30
2019-03-23T08:52:21.011Z,28.76
2019-03-23T08:58:04.472Z,27.66
2019-03-23T09:00:53.280Z,27.17
2019-03-23T09:03:52.130Z,27.59
2019-03-23T09:06:51.585Z,28.70
2019-03-23T09:09:40.397Z,27.00
2019-03-23T09:12:29.185Z,27.52
2019-03-23T09:15:17.980Z,26.12
2019-03-23T09:18:06.769Z,25.65
2019-03-23T09:24:37.579Z,33.62
2019-03-23T09:27:06.252Z,36.31
2019-03-23T09:29:34.913Z,36.89
2019-03-23T09:32:03.585Z,34.53
2019-03-23T09:34:32.233Z,37.73
2019-03-23T09:37:00.901Z,34.59
2019-03-23T09:39:29.554Z,35.05
2019-03-23T09:41:58.220Z,33.78
2019-03-23T09:44:27.848Z,38.62
2019-03-23T09:46:56.587Z,36.94
2019-03-23T09:49:25.294Z,35.13
2019-03-23T09:51:53.916Z,33.98
2019-03-23T09:54:22.741Z,33.05
2019-03-23T09:56:51.425Z,31.92
2019-03-23T09:59:20.069Z,33.13
2019-03-23T10:01:48.736Z,32.87
2019-03-23T10:04:17.391Z,32.16
2019-03-23T10:06:46.060Z,31.38
2019-03-23T10:09:14.851Z,32.04
2019-03-23T10:11:43.516Z,30.68
2019-03-23T10:15:35.393Z,31.80
2019-03-23T10:20:08.566Z,34.31
2019-03-23T10:22:38.029Z,33.37
2019-03-23T10:25:08.599Z,35.08
2019-03-23T10:27:38.082Z,34.48
2019-03-23T10:30:10.421Z,30.94
2019-03-23T10:32:40.418Z,31.90
2019-03-23T10:35:10.632Z,35.62
2019-03-23T10:37:40.661Z,33.00
2019-03-23T10:40:11.897Z,34.08
2019-03-23T11:16:26.780Z,38.46
2019-03-23T11:18:57.190Z,38.31
2019-03-23T11:21:27.761Z,29.71
2019-03-23T11:23:59.914Z,25.69
2019-03-23T11:26:29.377Z,25.95
2019-03-23T11:28:58.829Z,25.50
2019-03-23T11:31:28.358Z,24.59
2019-03-23T11:33:59.723Z,25.24
2019-03-23T11:36:29.165Z,25.57
2019-03-23T11:38:58.674Z,25.85
2019-03-23T11:41:29.589Z,25.07
2019-03-23T11:43:59.030Z,25.27
2019-03-23T11:46:28.491Z,24.07
2019-03-23T11:48:58.009Z,23.15
2019-03-23T11:51:27.463Z,22.81
2019-03-23T11:53:56.968Z,22.63
2019-03-23T11:56:30.483Z,23.41
2019-03-23T11:58:57.601Z,22.57
2019-03-23T12:01:27.053Z,21.34
2019-03-23T12:03:56.487Z,23.05
2019-03-23T12:06:25.944Z,23.06
2019-03-23T12:08:55.382Z,23.80
2019-03-23T12:11:24.860Z,24.53
2019-03-23T12:13:54.300Z,25.49
2019-03-23T12:16:23.773Z,25.57
2019-03-23T12:18:53.208Z,25.50
2019-03-23T12:21:24.539Z,25.11
2019-03-23T12:23:54.032Z,26.20
2019-03-23T12:26:23.654Z,26.53
2019-03-23T12:28:53.102Z,25.06
2019-03-23T12:31:22.559Z,25.43
2019-03-23T12:33:52.001Z,25.96
2019-03-23T12:36:21.488Z,25.55
2019-03-23T12:38:50.982Z,25.20
2019-03-23T12:41:23.384Z,24.92
2019-03-23T12:43:51.595Z,24.84
2019-03-23T12:46:21.047Z,24.05
2019-03-23T12:48:50.487Z,24.56
2019-03-23T12:51:19.132Z,36.44
2019-03-23T12:53:47.807Z,35.89
2019-03-23T12:56:16.467Z,34.25
2019-03-23T13:00:30.250Z,33.00
2019-03-23T13:02:58.935Z,35.66
2019-03-23T13:05:27.587Z,32.93
2019-03-23T13:07:56.264Z,28.13
2019-03-23T13:10:25.089Z,25.82
2019-03-23T13:12:53.767Z,25.26
2019-03-23T13:15:22.571Z,24.11
2019-03-23T13:17:52.241Z,25.23
2019-03-23T13:20:20.998Z,25.34
2019-03-23T13:22:49.659Z,25.28
2019-03-23T13:25:18.560Z,26.05
2019-03-23T13:28:08.027Z,26.60
2019-03-23T13:30:37.107Z,26.58
2019-03-23T13:33:06.413Z,25.70
2019-03-23T13:35:35.607Z,25.89
2019-03-23T13:38:04.552Z,27.22
2019-03-23T13:40:34.848Z,26.99
2019-03-23T13:43:05.043Z,25.65
2019-03-23T13:45:42.571Z,28.50
2019-03-23T13:48:06.636Z,26.10
2019-03-23T13:50:35.301Z,25.97
2019-03-23T13:53:03.982Z,28.62
2019-03-23T13:55:34.569Z,26.16
2019-03-23T13:58:13.948Z,27.30
2019-03-23T14:00:42.775Z,27.37
2019-03-23T14:03:13.452Z,28.31
2019-03-23T14:05:42.116Z,27.92
2019-03-23T14:08:10.871Z,27.30
2019-03-23T14:10:39.538Z,27.47
2019-03-23T14:13:08.219Z,27.08
2019-03-23T14:15:36.891Z,25.31
2019-03-23T14:18:05.645Z,27.54
2019-03-23T14:20:34.376Z,28.35
2019-03-23T14:23:03.266Z,27.89
2019-03-23T14:25:31.904Z,26.08
2019-03-23T14:28:00.584Z,26.60
2019-03-23T14:30:29.235Z,26.27
2019-03-23T14:32:57.912Z,26.37
2019-03-23T14:35:26.570Z,25.60
2019-03-23T14:37:55.277Z,26.85
2019-03-23T14:40:23.905Z,26.57
2019-03-23T14:42:52.653Z,26.59
2019-03-23T14:45:21.348Z,27.82
2019-03-23T14:47:50.026Z,26.45
2019-03-23T14:50:18.685Z,26.75
2019-03-23T14:52:47.459Z,25.94
2019-03-23T14:55:16.120Z,27.46
2019-03-23T14:57:44.790Z,25.73
2019-03-23T15:00:13.728Z,25.96
2019-03-23T15:02:42.370Z,27.04
2019-03-23T15:05:11.049Z,27.99
2019-03-23T15:07:39.803Z,28.32
2019-03-23T15:10:09.958Z,28.02
2019-03-23T15:12:38.642Z,29.22
2019-03-23T15:15:07.818Z,28.76
2019-03-23T15:17:36.472Z,28.68
2019-03-23T15:20:06.180Z,29.69
2019-03-23T15:22:34.866Z,30.76
2019-03-23T15:25:04.475Z,30.21
2019-03-23T15:27:33.138Z,31.28
2019-03-23T15:30:03.525Z,30.69
2019-03-23T15:32:32.200Z,31.88
2019-03-23T15:35:00.875Z,30.63
2019-03-23T15:37:29.539Z,30.34
2019-03-23T15:39:58.226Z,30.72
2019-03-23T15:42:26.941Z,31.72
2019-03-23T15:44:55.651Z,31.23
2019-03-23T15:47:24.309Z,31.44
2019-03-23T15:49:52.982Z,31.73
2019-03-23T15:52:21.664Z,31.99
2019-03-23T15:54:50.378Z,32.17
2019-03-23T15:57:19.050Z,32.47
2019-03-23T15:59:47.722Z,31.87
2019-03-23T16:02:16.376Z,31.87
2019-03-23T16:04:45.047Z,32.03
2019-03-23T16:07:14.677Z,31.79
2019-03-23T16:09:43.355Z,32.15
2019-03-23T16:12:12.007Z,31.43
2019-03-23T16:14:40.683Z,31.74
2019-03-23T16:17:09.354Z,32.14
2019-03-23T16:19:38.037Z,32.18
2019-03-23T16:22:06.698Z,32.02
2019-03-23T16:24:35.368Z,32.22
2019-03-23T16:27:04.015Z,31.81
2019-03-23T16:29:32.701Z,31.67
2019-03-23T16:32:01.363Z,31.98
2019-03-23T16:34:30.037Z,34.82
2019-03-23T16:36:58.707Z,33.13
2019-03-23T16:39:27.377Z,32.21
2019-03-23T16:41:56.097Z,32.46
2019-03-23T16:44:24.768Z,33.17
2019-03-23T16:46:53.595Z,33.02
2019-03-23T16:49:22.284Z,33.04
2019-03-23T16:51:50.989Z,32.08
2019-03-23T16:54:19.678Z,32.00
2019-03-23T16:56:48.341Z,32.08
2019-03-23T16:59:17.016Z,32.61
2019-03-23T17:01:45.678Z,33.70
2019-03-23T17:04:14.398Z,33.56
2019-03-23T17:06:46.683Z,34.38
2019-03-23T17:09:13.455Z,34.79
2019-03-23T17:11:42.117Z,35.01
2019-03-23T17:14:10.812Z,35.02
2019-03-23T17:16:39.466Z,35.03
2019-03-23T17:19:08.143Z,35.46
2019-03-23T17:21:36.803Z,35.59
2019-03-23T17:24:05.477Z,35.65
2019-03-23T17:26:34.150Z,36.37
2019-03-23T17:29:03.007Z,36.50
2019-03-23T17:31:31.675Z,36.75
2019-03-23T17:34:00.328Z,37.02
2019-03-23T17:36:28.996Z,37.09
2019-03-23T17:38:57.678Z,36.93
2019-03-23T17:41:26.347Z,36.95
2019-03-23T17:43:55.029Z,37.30
2019-03-23T17:46:23.692Z,37.94
2019-03-23T17:48:52.358Z,37.67
2019-03-23T17:51:21.036Z,38.13
2019-03-23T17:53:58.317Z,37.99
2019-03-23T17:56:20.118Z,38.34
2019-03-23T17:58:48.772Z,38.59
2019-03-23T18:01:19.632Z,38.36
2019-03-23T18:03:47.860Z,39.00
2019-03-23T18:06:16.547Z,38.80
2019-03-23T18:08:45.222Z,38.81
2019-03-23T18:11:13.902Z,39.16
2019-03-23T18:13:42.603Z,39.46
2019-03-23T18:16:11.291Z,38.99
2019-03-23T18:18:39.954Z,39.80
2019-03-23T18:21:08.631Z,39.88
2019-03-23T18:23:37.282Z,40.23
2019-03-23T18:26:06.028Z,40.50
2019-03-23T18:28:36.006Z,40.68
2019-03-23T18:31:04.659Z,41.29
2019-03-23T18:33:33.311Z,40.91
2019-03-23T18:36:02.008Z,41.24
2019-03-23T18:38:30.683Z,41.09
2019-03-23T18:40:59.432Z,41.33
2019-03-23T18:43:28.131Z,41.36
2019-03-23T18:45:56.824Z,41.73
2019-03-23T18:48:25.486Z,41.90
2019-03-23T18:50:54.171Z,42.71
2019-03-23T18:53:24.075Z,42.81
2019-03-23T18:55:52.872Z,43.48
2019-03-23T18:58:21.557Z,42.97
2019-03-23T19:00:50.251Z,43.17
2019-03-23T19:03:18.954Z,43.18
2019-03-23T19:05:47.641Z,43.91
2019-03-23T19:08:16.318Z,43.68
2019-03-23T19:10:45.002Z,44.29
2019-03-23T19:13:13.652Z,44.26
2019-03-23T19:15:42.336Z,44.23
2019-03-23T19:18:11.078Z,44.12
2019-03-23T19:20:39.760Z,43.94
2019-03-23T19:23:08.420Z,44.70
2019-03-23T19:25:37.125Z,44.52
2019-03-23T19:28:05.779Z,44.15
2019-03-23T19:30:34.522Z,44.29
2019-03-23T19:33:03.181Z,43.99
2019-03-23T19:35:31.922Z,44.77
2019-03-23T19:38:00.576Z,44.90
2019-03-23T19:40:32.262Z,44.83
2019-03-23T19:43:00.913Z,44.89
2019-03-23T19:45:29.606Z,44.83
2019-03-23T19:47:58.265Z,44.83
2019-03-23T19:50:26.950Z,44.88
2019-03-23T19:52:55.620Z,44.86
2019-03-23T19:55:24.362Z,44.89
2019-03-23T19:57:54.758Z,44.11
2019-03-23T20:00:23.610Z,43.80
2019-03-23T20:02:52.347Z,44.02
2019-03-23T20:05:21.096Z,44.18
2019-03-23T20:07:50.021Z,44.71
2019-03-23T20:10:18.842Z,44.82
2019-03-23T20:12:47.517Z,44.54
2019-03-23T20:15:16.404Z,44.63
2019-03-23T20:17:45.074Z,44.93
2019-03-23T20:20:13.892Z,44.88
2019-03-23T20:22:42.577Z,44.48
2019-03-23T20:25:12.372Z,45.37
2019-03-23T20:27:41.072Z,45.39
2019-03-23T20:30:12.167Z,44.97
2019-03-23T20:32:40.921Z,44.91
2019-03-23T20:35:11.605Z,45.30
2019-03-23T20:37:40.297Z,45.31
2019-03-23T20:40:09.286Z,45.67
2019-03-23T20:42:37.967Z,45.93
2019-03-23T20:45:07.362Z,46.03
2019-03-23T20:47:36.565Z,45.90
2019-03-23T20:50:07.614Z,46.98
2019-03-23T20:52:36.549Z,47.05
2019-03-23T20:55:08.476Z,47.11
2019-03-23T20:57:37.823Z,46.90
2019-03-23T21:00:07.761Z,47.12
2019-03-23T21:02:36.431Z,46.86
2019-03-23T21:05:06.062Z,47.40
2019-03-23T21:07:34.764Z,47.72
2019-03-23T21:10:03.967Z,47.81
2019-03-23T21:12:32.629Z,48.23
2019-03-23T21:15:01.287Z,48.29
2019-03-23T21:17:29.957Z,48.58
2019-03-23T21:19:59.633Z,48.93
2019-03-23T21:22:28.677Z,48.67
2019-03-23T21:24:57.331Z,48.67
2019-03-23T21:27:26.017Z,48.74
2019-03-23T21:29:54.673Z,48.94
2019-03-23T21:32:23.354Z,49.14
2019-03-23T21:34:52.051Z,48.89
2019-03-23T21:37:20.737Z,49.40
2019-03-23T21:39:49.528Z,49.62
2019-03-23T21:42:18.254Z,50.35
2019-03-23T21:44:47.892Z,49.66
2019-03-23T21:47:16.555Z,49.70
2019-03-23T21:49:45.283Z,49.95
2019-03-23T21:52:13.964Z,50.47
2019-03-23T21:54:42.665Z,50.54
2019-03-23T21:57:11.373Z,50.41
2019-03-23T21:59:40.032Z,50.32
2019-03-23T22:02:08.721Z,50.30
2019-03-23T22:04:37.378Z,50.56
2019-03-23T22:07:06.133Z,50.64
2019-03-23T22:09:34.814Z,50.86
2019-03-23T22:12:04.252Z,51.63
2019-03-23T22:14:41.381Z,51.41
2019-03-23T22:17:05.687Z,51.36
2019-03-23T22:19:33.723Z,51.75
2019-03-23T22:22:02.386Z,52.18
2019-03-23T22:24:31.071Z,52.64
2019-03-23T22:26:59.732Z,51.82
2019-03-23T22:29:28.479Z,52.20
2019-03-23T22:31:57.154Z,51.98
2019-03-23T22:34:25.927Z,51.72
2019-03-23T22:36:54.650Z,52.10
2019-03-23T22:39:23.449Z,51.90
2019-03-23T22:41:52.159Z,52.06
2019-03-23T22:44:20.840Z,52.08
2019-03-23T22:46:49.587Z,52.01
2019-03-23T22:49:18.248Z,52.06
2019-03-23T22:51:46.906Z,52.14
2019-03-23T22:54:15.567Z,52.23
2019-03-23T22:56:44.249Z,52.90
2019-03-23T22:59:15.294Z,53.02
2019-03-23T23:01:43.302Z,52.38
2019-03-23T23:04:11.979Z,52.83
2019-03-23T23:06:40.659Z,52.96
2019-03-23T23:09:09.820Z,53.25
2019-03-23T23:11:38.482Z,53.59
2019-03-23T23:14:07.145Z,53.80
2019-03-23T23:16:35.807Z,53.87
2019-03-23T23:19:04.560Z,53.74
2019-03-23T23:21:34.630Z,53.56
2019-03-23T23:24:03.315Z,53.81
2019-03-23T23:26:31.977Z,54.14
2019-03-23T23:29:00.644Z,54.29
2019-03-23T23:31:29.303Z,54.89
2019-03-23T23:33:57.983Z,55.13
2019-03-23T23:36:28.690Z,54.76
2019-03-23T23:38:57.365Z,55.34
2019-03-23T23:41:26.043Z,54.12
2019-03-23T23:43:54.729Z,54.22
2019-03-23T23:46:23.390Z,53.75
2019-03-23T23:48:52.055Z,53.62
2019-03-23T23:51:20.713Z,53.20
2019-03-23T23:53:49.393Z,53.82
2019-03-23T23:56:18.043Z,54.83
2019-03-23T23:58:46.714Z,53.50
